Auke Bay, Alaska
Current Conditions -  °F | °C
As of 3:53 AM on Wednesday 22 Oct 2014 (Local Time) from PAJN Reporting Station
Overcast Overcast  
Wind Chill: 41°   Ceiling: 14000
Heat Index: 41°   Visibility: 10mi
Dew Point: 40°   Wind: 0mph
Humidity: 96%   Direction: NA
Pressure: 29.15"   Gusts: NA
Location:  58.38°N, 134.67°W
Report Text: PAJN 221153Z 00000KT 10SM FEW095 OVC140 05/04 A2915 RMK AO2 SLP871 60001 70002 T00500044 10089 20039 58007
Loading
Personal Weather Stations






























Interactive Weather Map
Tropical Storm Tracking
New forecast layout! Learn more

10-Day Weather Forecast

Advertisements
Track Severe Weather on mobile